createdAt,value
2023-03-28T00:04:05.367Z,57.02
2023-03-28T00:16:05.951Z,61.24
2023-03-28T00:28:06.241Z,63.47
2023-03-28T00:40:11.810Z,66.05
2023-03-28T00:52:07.144Z,68.10
2023-03-28T01:04:07.595Z,73.70
2023-03-28T01:16:08.210Z,73.39
2023-03-28T01:28:10.727Z,75.58
2023-03-28T01:40:08.940Z,74.53
2023-03-28T01:52:09.401Z,75.58
2023-03-28T02:04:20.485Z,77.26
2023-03-28T02:16:10.373Z,74.71
2023-03-28T02:28:10.772Z,75.32
2023-03-28T02:40:11.270Z,74.77
2023-03-28T02:52:11.684Z,79.96
2023-03-28T03:04:12.168Z,81.33
2023-03-28T03:16:12.653Z,79.60
2023-03-28T03:28:13.074Z,81.94
2023-03-28T03:40:13.494Z,81.40
2023-03-28T03:52:13.936Z,83.25
2023-03-28T04:04:14.430Z,81.14
2023-03-28T04:16:14.864Z,77.75
2023-03-28T04:28:15.283Z,71.15
2023-03-28T04:40:15.792Z,60.84
2023-03-28T04:52:16.156Z,57.24
2023-03-28T05:04:16.598Z,56.35
2023-03-28T05:16:17.106Z,56.11
2023-03-28T05:28:17.534Z,55.21
2023-03-28T05:40:17.997Z,52.69
2023-03-28T05:52:18.841Z,48.52
2023-03-28T06:04:18.902Z,46.55
2023-03-28T06:16:19.418Z,49.31
2023-03-28T06:28:19.811Z,47.30
2023-03-28T06:40:20.227Z,45.05
2023-03-28T06:52:20.683Z,44.84
2023-03-28T07:04:21.315Z,44.02
2023-03-28T07:16:21.627Z,43.66
2023-03-28T07:28:22.049Z,42.36
2023-03-28T07:40:22.489Z,42.16
2023-03-28T07:52:22.993Z,42.57
2023-03-28T08:04:23.427Z,42.54
2023-03-28T08:16:24.011Z,41.78
2023-03-28T08:28:24.320Z,44.43
2023-03-28T08:40:24.826Z,42.91
2023-03-28T08:52:25.235Z,42.39
2023-03-28T09:04:25.735Z,45.99
2023-03-28T09:16:26.139Z,47.56
2023-03-28T09:28:26.572Z,48.14
2023-03-28T09:40:27.017Z,48.78
2023-03-28T09:52:27.443Z,46.06
2023-03-28T10:04:27.986Z,42.79
2023-03-28T10:16:28.474Z,42.21
2023-03-28T10:28:28.842Z,42.29
2023-03-28T10:40:29.303Z,43.42
2023-03-28T10:52:29.731Z,39.42
2023-03-28T11:04:30.229Z,46.65
2023-03-28T11:16:30.645Z,60.72
2023-03-28T11:28:31.066Z,86.43
2023-03-28T11:40:31.554Z,86.78
2023-03-28T11:52:33.753Z,81.21
2023-03-28T12:04:32.568Z,73.62
2023-03-28T12:16:32.925Z,57.98
2023-03-28T12:28:33.355Z,61.14
2023-03-28T12:40:33.854Z,70.12
2023-03-28T12:52:34.281Z,87.79
2023-03-28T13:04:34.785Z,81.11
2023-03-28T13:16:35.160Z,72.75
2023-03-28T13:28:35.617Z,76.77
2023-03-28T13:40:36.094Z,76.79
2023-03-28T13:52:36.518Z,68.98
2023-03-28T14:04:36.972Z,66.03
2023-03-28T14:16:37.608Z,74.17
2023-03-28T14:28:37.948Z,84.92
2023-03-28T14:40:38.318Z,75.74
2023-03-28T14:52:38.846Z,74.22
2023-03-28T15:04:39.402Z,78.51
2023-03-28T15:16:39.703Z,73.78
2023-03-28T15:28:40.169Z,69.28
2023-03-28T15:40:40.601Z,66.20
2023-03-28T15:52:41.064Z,70.20
2023-03-28T16:04:41.501Z,69.56
2023-03-28T16:16:42.001Z,64.28
2023-03-28T16:28:42.421Z,63.01
2023-03-28T16:40:42.883Z,62.61
2023-03-28T16:52:43.378Z,61.91
2023-03-28T17:04:43.773Z,63.21
2023-03-28T17:16:44.246Z,62.71
2023-03-28T17:28:44.700Z,64.15
2023-03-28T17:40:45.099Z,68.05
2023-03-28T17:52:45.597Z,68.73
2023-03-28T18:04:46.020Z,72.59
2023-03-28T18:16:46.544Z,78.20
2023-03-28T18:28:46.951Z,77.04
2023-03-28T18:40:47.375Z,77.71
2023-03-28T18:52:47.849Z,76.12
2023-03-28T19:04:48.318Z,77.80
2023-03-28T19:16:48.838Z,78.04
2023-03-28T19:28:49.199Z,76.34
2023-03-28T19:40:49.660Z,81.78
2023-03-28T19:52:50.123Z,80.23
2023-03-28T20:04:50.583Z,79.98
2023-03-28T20:16:50.969Z,80.47
2023-03-28T20:28:51.427Z,83.78
2023-03-28T20:40:51.927Z,82.37
2023-03-28T20:52:52.324Z,84.35
2023-03-28T21:04:52.803Z,81.71
2023-03-28T21:16:53.317Z,80.63
2023-03-28T21:29:01.434Z,79.24
2023-03-28T21:40:56.868Z,80.48
2023-03-28T21:52:54.614Z,80.60
2023-03-28T22:04:56.790Z,79.71
2023-03-28T22:16:55.536Z,80.71
2023-03-28T22:28:55.946Z,79.26
2023-03-28T22:40:56.388Z,80.12
2023-03-28T22:53:01.183Z,85.00
2023-03-28T23:04:57.362Z,86.24
2023-03-28T23:28:58.255Z,84.65
2023-03-28T23:40:58.690Z,84.39
2023-03-28T23:52:59.126Z,88.26
